Time;durP1;ratioP1;P1;durP2;ratioP2;P2;SDS_P1;SDS_P2;PMS_P1;PMS_P2;Temp;Humidity;BMP_temperature;BMP_pressure;BME280_temperature;BME280_humidity;BME280_pressure;Samples;Min_cycle;Max_cycle;Signal;HPM_P1;HPM_P2
2023/08/12 00:00:08;;;;;;;;;12.50;9.50;;;;;26.10;69.17;100950.84;5055197;28;45462;-69
2023/08/12 00:02:34;;;;;;;;;7.25;7.25;;;;;26.09;69.23;100954.53;5054805;28;45401;-69
2023/08/12 00:04:59;;;;;;;;;8.25;8.25;;;;;26.09;69.36;100953.72;5054886;28;45540;-69
2023/08/12 00:07:24;;;;;;;;;6.00;6.00;;;;;26.07;69.50;100947.63;5037222;28;45460;-70
2023/08/12 00:09:50;;;;;;;;;7.50;7.50;;;;;26.07;70.18;100936.84;5055299;28;45450;-70
2023/08/12 00:12:15;;;;;;;;;9.00;8.00;;;;;26.07;69.66;100926.91;5055723;28;45358;-69
2023/08/12 00:14:40;;;;;;;;;9.75;8.25;;;;;26.08;69.80;100919.69;5059675;28;46329;-69
2023/08/12 00:17:06;;;;;;;;;7.50;7.00;;;;;26.09;70.04;100919.50;5065328;28;45308;-70
2023/08/12 00:19:31;;;;;;;;;8.00;6.00;;;;;26.07;69.97;100924.19;5063488;28;45390;-68
2023/08/12 00:21:57;;;;;;;;;6.75;6.50;;;;;26.04;70.29;100919.13;5063639;28;45351;-68
2023/08/12 00:24:22;;;;;;;;;5.75;5.25;;;;;26.06;70.23;100911.72;5061205;28;45261;-68
2023/08/12 00:26:47;;;;;;;;;7.00;5.75;;;;;26.02;70.16;100907.66;5060350;28;45312;-69
2023/08/12 00:29:13;;;;;;;;;5.75;5.75;;;;;25.95;70.37;100914.66;5059435;28;46949;-71
2023/08/12 00:31:38;;;;;;;;;5.50;5.50;;;;;25.95;70.65;100902.03;5058499;28;45331;-71
2023/08/12 00:34:03;;;;;;;;;10.75;7.75;;;;;26.01;70.54;100908.66;5057765;28;59908;-71
2023/08/12 00:36:28;;;;;;;;;8.00;7.00;;;;;25.99;70.68;100905.25;5058936;28;45377;-72
2023/08/12 00:38:54;;;;;;;;;8.00;6.50;;;;;25.98;70.33;100895.50;5040053;28;56391;-70
2023/08/12 00:41:19;;;;;;;;;7.00;7.00;;;;;25.95;71.13;100896.63;5058919;28;45446;-71
2023/08/12 00:43:44;;;;;;;;;8.00;6.50;;;;;25.94;71.03;100899.50;5058204;28;45273;-72
2023/08/12 00:46:10;;;;;;;;;7.00;6.00;;;;;25.96;71.06;100897.50;5058007;28;56422;-71
2023/08/12 00:48:35;;;;;;;;;6.25;4.75;;;;;25.88;71.06;100886.66;5058284;28;46644;-71
2023/08/12 00:51:01;;;;;;;;;9.00;8.00;;;;;25.93;71.28;100901.34;5056823;28;45358;-71
2023/08/12 00:53:28;;;;;;;;;6.25;6.25;;;;;25.89;71.44;100893.72;5058830;28;45327;-70
2023/08/12 00:55:54;;;;;;;;;7.75;7.75;;;;;25.91;71.67;100902.50;5059173;28;45557;-71
2023/08/12 00:58:20;;;;;;;;;8.00;7.00;;;;;25.93;71.59;100892.41;5058117;28;47182;-71
2023/08/12 01:00:45;;;;;;;;;7.75;7.75;;;;;25.86;71.23;100897.56;5058685;28;45422;-72
2023/08/12 01:03:11;;;;;;;;;8.00;6.25;;;;;25.91;71.61;100902.50;5058980;28;45369;-70
2023/08/12 01:05:37;;;;;;;;;6.00;6.00;;;;;25.90;72.17;100900.81;5059238;28;45326;-70
2023/08/12 01:08:02;;;;;;;;;7.00;7.00;;;;;25.85;72.95;100908.50;5058929;28;46117;-71
2023/08/12 01:10:35;;;;;;;;;10.00;7.75;;;;;25.81;73.70;100897.19;5058404;28;45229;-70
2023/08/12 01:13:21;;;;;;;;;10.00;10.00;;;;;25.76;73.38;100897.66;5058549;28;45360;-70
2023/08/12 01:15:52;;;;;;;;;8.25;7.75;;;;;25.67;74.08;100893.19;5057989;28;45375;-69
2023/08/12 01:18:18;;;;;;;;;7.00;7.00;;;;;25.61;74.27;100880.34;5055460;28;46133;-69
2023/08/12 01:20:43;;;;;;;;;9.50;6.00;;;;;25.61;74.34;100874.97;5057266;28;45400;-68
2023/08/12 01:23:18;;;;;;;;;8.75;8.75;;;;;25.63;75.05;100891.81;5057560;28;45683;-71
2023/08/12 01:25:43;;;;;;;;;6.75;6.75;;;;;25.54;75.08;100881.97;5055297;28;45395;-73
2023/08/12 01:28:09;;;;;;;;;7.75;7.00;;;;;25.50;75.54;100879.56;5057374;28;45439;-71
2023/08/12 01:30:43;;;;;;;;;10.75;7.25;;;;;25.54;75.55;100882.78;5057160;28;45332;-72
2023/08/12 01:33:24;;;;;;;;;7.00;7.00;;;;;25.40;76.12;100878.72;5057191;28;45512;-71
2023/08/12 01:36:03;;;;;;;;;9.50;8.00;;;;;25.34;77.44;100877.50;5057208;28;45622;-70
2023/08/12 01:38:31;;;;;;;;;10.00;7.00;;;;;25.23;78.77;100889.31;5057079;28;46551;-71
2023/08/12 01:40:57;;;;;;;;;7.50;7.00;;;;;25.14;78.47;100886.69;5057047;28;45429;-71
2023/08/12 01:43:23;;;;;;;;;8.00;8.00;;;;;25.14;78.42;100890.22;5058149;28;45256;-70
2023/08/12 01:45:49;;;;;;;;;8.75;6.75;;;;;25.11;78.95;100881.63;5059025;28;45224;-71
2023/08/12 01:48:14;;;;;;;;;4.00;4.00;;;;;25.14;78.07;100879.47;5057216;28;45250;-72
2023/08/12 01:50:46;;;;;;;;;7.25;7.25;;;;;25.11;79.18;100879.75;5038636;28;45644;-71
2023/08/12 01:53:11;;;;;;;;;4.75;4.75;;;;;25.00;80.05;100864.69;5056918;28;45320;-72
2023/08/12 01:55:37;;;;;;;;;6.50;4.75;;;;;24.92;80.12;100865.41;5056402;28;47229;-73
2023/08/12 01:58:02;;;;;;;;;3.75;3.75;;;;;24.86;81.92;100870.53;5056482;28;45506;-72
2023/08/12 02:00:27;;;;;;;;;7.25;6.00;;;;;24.74;81.22;100869.88;5056702;28;45351;-72
2023/08/12 02:02:53;;;;;;;;;4.25;4.25;;;;;24.64;82.61;100859.13;5056398;28;45311;-71
2023/08/12 02:05:18;;;;;;;;;4.00;4.00;;;;;24.70;82.25;100852.31;5056738;28;45355;-74
2023/08/12 02:07:43;;;;;;;;;6.25;6.25;;;;;24.74;83.26;100848.38;5056372;28;46271;-71
2023/08/12 02:10:09;;;;;;;;;4.00;4.00;;;;;24.79;82.58;100848.75;5056241;28;45224;-70
2023/08/12 02:12:34;;;;;;;;;4.75;4.50;;;;;24.79;82.94;100854.97;5056202;28;45368;-69
2023/08/12 02:14:59;;;;;;;;;4.00;4.00;;;;;24.81;82.57;100849.47;5056872;28;45550;-69
2023/08/12 02:17:25;;;;;;;;;3.75;3.75;;;;;24.85;82.47;100855.38;5056430;28;46021;-71
2023/08/12 02:19:50;;;;;;;;;3.00;3.00;;;;;24.84;82.48;100857.25;5055923;28;45245;-69
2023/08/12 02:22:15;;;;;;;;;3.00;3.00;;;;;24.82;82.49;100861.91;5055344;28;59483;-69
2023/08/12 02:24:41;;;;;;;;;4.50;4.00;;;;;24.73;83.54;100860.94;5038138;28;45596;-69
2023/08/12 02:27:06;;;;;;;;;2.50;2.50;;;;;24.74;83.63;100859.94;5055361;28;63420;-69
2023/08/12 02:29:31;;;;;;;;;7.50;4.50;;;;;24.78;83.95;100853.28;5056368;28;45271;-70
2023/08/12 02:31:56;;;;;;;;;3.00;3.00;;;;;24.69;84.00;100831.78;5055825;28;51974;-70
2023/08/12 02:34:22;;;;;;;;;2.50;2.50;;;;;24.77;84.07;100853.44;5055727;28;52529;-71
2023/08/12 02:36:47;;;;;;;;;3.25;3.25;;;;;24.76;83.72;100863.34;5054979;28;58196;-71
2023/08/12 02:39:12;;;;;;;;;2.00;2.00;;;;;24.69;84.45;100861.38;5055647;28;57311;-69
2023/08/12 02:41:38;;;;;;;;;5.25;5.25;;;;;24.68;86.28;100843.53;5056304;28;45366;-69
2023/08/12 02:44:03;;;;;;;;;2.00;2.00;;;;;24.63;86.33;100839.47;5055600;28;54470;-69
2023/08/12 02:46:29;;;;;;;;;4.00;2.25;;;;;24.73;85.43;100847.50;5056257;28;45395;-70
2023/08/12 02:48:54;;;;;;;;;3.00;3.00;;;;;24.76;85.89;100849.91;5055872;28;45340;-69
2023/08/12 02:51:19;;;;;;;;;3.75;3.75;;;;;24.74;85.45;100842.97;5037561;28;45374;-69
2023/08/12 02:53:44;;;;;;;;;2.75;2.75;;;;;24.77;85.68;100848.06;5056124;28;45349;-70
2023/08/12 02:56:10;;;;;;;;;3.00;3.00;;;;;24.75;85.51;100844.69;5037264;28;53215;-69
2023/08/12 02:58:35;;;;;;;;;2.00;2.00;;;;;24.65;85.76;100840.16;5037256;28;49429;-70
2023/08/12 03:01:00;;;;;;;;;2.00;2.00;;;;;24.70;89.02;100846.94;5056556;28;45380;-72
2023/08/12 03:03:26;;;;;;;;;3.75;3.00;;;;;24.68;87.06;100843.53;5055352;28;59530;-68
2023/08/12 03:05:51;;;;;;;;;4.00;2.25;;;;;24.69;87.23;100835.31;5055396;28;46130;-71
2023/08/12 03:08:16;;;;;;;;;2.00;2.00;;;;;24.78;86.78;100839.84;5055679;28;45375;-70
2023/08/12 03:10:42;;;;;;;;;2.00;2.00;;;;;24.80;86.96;100831.63;5055671;28;45367;-71
2023/08/12 03:13:07;;;;;;;;;4.50;4.00;;;;;24.82;86.66;100828.78;5056803;28;45498;-70
2023/08/12 03:15:33;;;;;;;;;2.00;2.00;;;;;24.78;86.22;100830.94;5059273;28;45845;-70
2023/08/12 03:17:58;;;;;;;;;2.00;2.00;;;;;24.75;85.96;100842.00;5064447;28;45386;-69
2023/08/12 03:20:23;;;;;;;;;1.33;1.33;;;;;24.71;86.43;100836.00;5059551;28;45233;-72
2023/08/12 03:22:49;;;;;;;;;2.00;2.00;;;;;24.69;86.05;100831.78;5039757;28;45300;-71
2023/08/12 03:25:17;;;;;;;;;1.00;1.00;;;;;24.63;86.40;100827.84;5057061;28;46117;-68
2023/08/12 03:27:42;;;;;;;;;2.75;1.00;;;;;24.63;87.20;100828.69;5059910;28;45368;-69
2023/08/12 03:30:08;;;;;;;;;1.25;1.25;;;;;24.65;85.98;100826.72;5056308;28;45680;-71
2023/08/12 03:32:34;;;;;;;;;2.00;2.00;;;;;24.66;86.49;100832.91;5055849;28;45522;-71
2023/08/12 03:34:59;;;;;;;;;1.50;1.25;;;;;24.64;86.93;100827.72;5055043;28;46316;-71
2023/08/12 03:37:25;;;;;;;;;1.00;1.00;;;;;24.67;86.59;100825.72;5054923;28;45320;-71
2023/08/12 03:39:51;;;;;;;;;3.25;1.50;;;;;24.70;87.06;100828.09;5055089;28;45376;-71
2023/08/12 03:42:16;;;;;;;;;1.00;1.00;;;;;24.69;86.27;100823.72;5055384;28;45233;-69
2023/08/12 03:44:42;;;;;;;;;1.00;1.00;;;;;24.64;86.59;100825.03;5054979;28;46119;-69
2023/08/12 03:47:07;;;;;;;;;1.00;1.00;;;;;24.69;86.86;100821.88;5055045;28;45369;-70
2023/08/12 03:49:33;;;;;;;;;1.00;1.00;;;;;24.65;86.84;100813.25;5058391;28;45304;-71
2023/08/12 03:51:58;;;;;;;;;0.50;0.50;;;;;24.71;86.29;100822.56;5059341;28;54873;-70
2023/08/12 03:54:23;;;;;;;;;2.75;2.75;;;;;24.66;87.14;100806.03;5058658;28;45340;-69
2023/08/12 03:56:49;;;;;;;;;0.75;0.75;;;;;24.67;87.21;100821.16;5058033;28;56383;-69
2023/08/12 03:59:14;;;;;;;;;1.00;1.00;;;;;24.69;87.11;100807.59;5058698;28;45305;-70
2023/08/12 04:01:39;;;;;;;;;3.00;3.00;;;;;24.61;88.24;100801.09;5058801;28;45392;-71
2023/08/12 04:04:05;;;;;;;;;4.00;2.75;;;;;24.59;87.62;100789.66;5058700;28;45194;-68
2023/08/12 04:06:30;;;;;;;;;1.00;1.00;;;;;24.72;86.82;100807.28;5040270;28;46048;-71
2023/08/12 04:08:55;;;;;;;;;2.00;2.00;;;;;24.79;85.87;100806.56;5058428;28;45355;-69
2023/08/12 04:11:20;;;;;;;;;3.00;1.00;;;;;24.83;85.57;100807.13;5057850;28;53824;-71
2023/08/12 04:13:46;;;;;;;;;0.00;0.00;;;;;24.81;86.19;100806.41;5058435;28;45331;-70
2023/08/12 04:16:12;;;;;;;;;1.25;1.25;;;;;24.72;86.75;100799.22;5058247;28;49167;-71
2023/08/12 04:18:37;;;;;;;;;3.00;1.50;;;;;24.74;86.34;100799.94;5058594;28;45266;-71
2023/08/12 04:21:02;;;;;;;;;2.00;2.00;;;;;24.76;86.05;100792.56;5058245;28;45374;-72
2023/08/12 04:23:27;;;;;;;;;1.00;1.00;;;;;24.78;86.17;100785.19;5058493;28;45396;-70
2023/08/12 04:25:56;;;;;;;;;1.25;1.25;;;;;24.81;86.17;100779.53;5057427;28;55954;-71
2023/08/12 04:28:21;;;;;;;;;3.00;2.00;;;;;24.84;85.34;100786.44;5062717;28;45327;-70
2023/08/12 04:30:48;;;;;;;;;1.00;1.00;;;;;24.87;85.46;100788.81;5059957;28;45474;-69
2023/08/12 04:33:14;;;;;;;;;0.25;0.25;;;;;24.87;85.76;100780.75;5057849;28;45416;-68
2023/08/12 04:35:40;;;;;;;;;1.00;1.00;;;;;24.89;84.69;100786.81;5056828;28;45314;-70
2023/08/12 04:38:06;;;;;;;;;1.67;0.67;;;;;24.83;85.36;100769.47;5058243;28;45279;-69
2023/08/12 04:40:32;;;;;;;;;3.00;2.00;;;;;24.87;85.23;100780.75;5056336;28;45679;-71
2023/08/12 04:43:00;;;;;;;;;2.00;2.00;;;;;24.87;85.63;100778.91;5057599;28;45328;-68
2023/08/12 04:45:26;;;;;;;;;7.00;4.50;;;;;24.87;85.49;100768.16;5057715;28;45457;-69
2023/08/12 04:47:51;;;;;;;;;2.00;2.00;;;;;24.95;85.44;100791.63;5039620;28;45347;-70
2023/08/12 04:50:17;;;;;;;;;1.00;1.00;;;;;24.98;85.20;100782.38;5056608;28;45374;-68
2023/08/12 04:52:42;;;;;;;;;1.00;1.00;;;;;24.95;85.42;100783.56;5057601;28;46144;-69
2023/08/12 04:55:08;;;;;;;;;2.33;2.33;;;;;24.98;84.72;100787.78;5057994;28;47506;-70
2023/08/12 04:57:33;;;;;;;;;1.00;1.00;;;;;24.98;84.74;100793.16;5058273;28;45223;-70
2023/08/12 04:59:58;;;;;;;;;1.00;1.00;;;;;24.97;84.65;100786.94;5058305;28;45645;-70
2023/08/12 05:02:24;;;;;;;;;1.00;1.00;;;;;24.96;84.38;100785.25;5057776;28;50030;-71
2023/08/12 05:04:50;;;;;;;;;2.00;2.00;;;;;24.97;84.74;100788.78;5039069;28;45320;-70
2023/08/12 05:07:16;;;;;;;;;3.00;1.25;;;;;24.97;84.70;100791.47;5057544;28;45232;-69
2023/08/12 05:09:43;;;;;;;;;2.00;2.00;;;;;24.97;84.36;100786.94;5057701;28;45215;-68
2023/08/12 05:12:09;;;;;;;;;2.25;2.25;;;;;25.02;84.20;100791.84;5057144;28;46253;-70
2023/08/12 05:14:34;;;;;;;;;2.25;2.25;;;;;25.05;84.11;100787.03;5056900;28;45346;-69
2023/08/12 05:16:59;;;;;;;;;2.00;2.00;;;;;25.11;84.15;100787.41;5056962;28;49383;-69
2023/08/12 05:19:25;;;;;;;;;4.75;3.00;;;;;25.12;84.69;100791.81;5056425;28;55161;-69
2023/08/12 05:21:50;;;;;;;;;4.25;2.50;;;;;25.16;84.33;100798.56;5056472;28;56360;-70
2023/08/12 05:24:15;;;;;;;;;2.50;2.50;;;;;25.14;84.37;100793.31;5056106;28;60472;-70
2023/08/12 05:26:40;;;;;;;;;1.67;1.67;;;;;25.13;84.35;100796.19;5057740;28;45409;-69
2023/08/12 05:29:06;;;;;;;;;2.25;2.25;;;;;25.13;84.35;100794.31;5057179;28;45585;-70
2023/08/12 05:31:31;;;;;;;;;2.75;2.75;;;;;25.06;84.41;100793.25;5056262;28;52355;-69
2023/08/12 05:33:56;;;;;;;;;1.00;1.00;;;;;24.99;84.48;100800.22;5056187;28;57067;-71
2023/08/12 05:36:22;;;;;;;;;2.00;2.00;;;;;24.97;83.97;100796.84;5056432;28;55036;-71
2023/08/12 05:38:47;;;;;;;;;1.00;1.00;;;;;24.94;84.24;100796.16;5056828;28;45464;-70
2023/08/12 05:41:12;;;;;;;;;1.00;1.00;;;;;24.96;83.54;100792.47;5056720;28;49054;-72
2023/08/12 05:43:38;;;;;;;;;1.33;1.00;;;;;24.90;84.13;100794.75;5056674;28;45171;-71
2023/08/12 05:46:03;;;;;;;;;1.00;1.00;;;;;24.98;83.98;100802.09;5056296;28;53653;-71
2023/08/12 05:48:28;;;;;;;;;1.67;1.00;;;;;25.06;83.19;100809.38;5056943;28;45347;-68
2023/08/12 05:50:53;;;;;;;;;2.00;2.00;;;;;25.11;82.80;100812.47;5056446;28;45934;-72
2023/08/12 05:53:19;;;;;;;;;2.00;2.00;;;;;25.06;82.36;100806.69;5056047;28;56556;-69
2023/08/12 05:55:44;;;;;;;;;2.00;2.00;;;;;25.13;82.03;100817.72;5056250;28;57139;-70
2023/08/12 05:58:09;;;;;;;;;2.00;2.00;;;;;25.11;81.76;100825.09;5057414;28;45526;-70
2023/08/12 06:00:35;;;;;;;;;1.00;1.00;;;;;25.06;81.55;100810.25;5037976;28;47167;-70
2023/08/12 06:03:00;;;;;;;;;1.00;1.00;;;;;25.06;81.26;100807.56;5056499;28;45314;-71
2023/08/12 06:05:26;;;;;;;;;1.00;1.00;;;;;25.11;81.03;100809.78;5056497;28;46276;-71
2023/08/12 06:07:51;;;;;;;;;3.50;3.00;;;;;25.13;81.58;100806.94;5056263;28;52857;-72
2023/08/12 06:10:16;;;;;;;;;3.00;3.00;;;;;25.15;81.47;100804.97;5055521;28;51581;-70
2023/08/12 06:12:41;;;;;;;;;4.00;2.50;;;;;25.20;80.86;100808.88;5056564;28;45267;-72
2023/08/12 06:15:07;;;;;;;;;2.00;0.50;;;;;25.22;80.74;100803.34;5054240;28;66047;-71
2023/08/12 06:17:32;;;;;;;;;3.25;3.25;;;;;25.20;80.77;100808.88;5038281;28;45257;-70
2023/08/12 06:19:58;;;;;;;;;3.00;3.00;;;;;25.20;80.14;100803.47;5055694;28;45947;-70
2023/08/12 06:22:23;;;;;;;;;17.00;17.00;;;;;25.24;80.41;100804.88;5055738;28;45280;-70
2023/08/12 06:24:48;;;;;;;;;4.00;4.00;;;;;25.29;80.05;100800.88;5055536;28;54168;-69
2023/08/12 06:27:13;;;;;;;;;3.00;3.00;;;;;25.31;80.02;100804.25;5056468;28;45441;-69
2023/08/12 06:29:39;;;;;;;;;3.00;3.00;;;;;25.16;79.67;100785.94;5037309;28;52738;-69
2023/08/12 06:32:04;;;;;;;;;1.00;1.00;;;;;25.35;78.90;100794.88;5055326;28;62398;-72
2023/08/12 06:34:30;;;;;;;;;1.67;1.67;;;;;25.37;79.51;100799.13;5037978;28;45464;-73
2023/08/12 06:36:55;;;;;;;;;3.75;3.75;;;;;25.35;79.05;100797.56;5055137;28;45494;-72
2023/08/12 06:39:20;;;;;;;;;1.75;1.75;;;;;25.34;79.50;100801.25;5054940;28;65236;-71
2023/08/12 06:41:46;;;;;;;;;4.25;2.50;;;;;25.38;79.32;100799.94;5056075;28;55432;-72
2023/08/12 06:44:11;;;;;;;;;2.67;1.33;;;;;25.37;78.68;100793.75;5056333;28;45318;-69
2023/08/12 06:46:36;;;;;;;;;3.00;3.00;;;;;25.41;78.52;100805.03;5055995;28;45505;-69
2023/08/12 06:49:01;;;;;;;;;3.33;1.67;;;;;25.40;78.40;100802.50;5054546;28;47059;-71
2023/08/12 06:51:27;;;;;;;;;1.00;1.00;;;;;25.45;78.26;100802.88;5055577;28;45310;-70
2023/08/12 06:53:52;;;;;;;;;50.50;43.25;;;;;25.46;78.79;100808.16;5055448;28;45311;-70
2023/08/12 06:56:17;;;;;;;;;4.00;1.00;;;;;25.42;78.18;100805.88;5055969;28;45967;-71
2023/08/12 06:58:43;;;;;;;;;3.25;2.75;;;;;25.51;77.99;100802.31;5056023;28;45890;-71
2023/08/12 07:01:08;;;;;;;;;6.00;6.00;;;;;25.65;77.89;100800.91;5055678;28;45192;-72
2023/08/12 07:03:33;;;;;;;;;1.50;1.50;;;;;25.73;78.01;100800.97;5055008;28;45362;-71
2023/08/12 07:05:59;;;;;;;;;6.00;4.50;;;;;25.88;77.38;100806.63;5055953;28;45421;-71
2023/08/12 07:08:24;;;;;;;;;3.00;1.00;;;;;25.91;76.92;100808.19;5055202;28;46046;-70
2023/08/12 07:10:49;;;;;;;;;1.00;1.00;;;;;25.97;76.52;100804.88;5056808;28;58172;-70
2023/08/12 07:13:15;;;;;;;;;5.00;4.25;;;;;26.05;75.92;100809.47;5056807;28;46936;-69
2023/08/12 07:15:40;;;;;;;;;3.00;3.00;;;;;26.11;75.92;100811.53;5055564;28;45192;-70
2023/08/12 07:18:06;;;;;;;;;3.00;3.00;;;;;26.05;75.75;100829.19;5055048;28;45363;-70
2023/08/12 07:20:31;;;;;;;;;2.00;2.00;;;;;26.01;75.25;100810.78;5054961;28;45406;-72
2023/08/12 07:22:56;;;;;;;;;5.50;5.50;;;;;25.89;75.48;100816.41;5053194;28;64606;-70
2023/08/12 07:25:21;;;;;;;;;1.33;1.00;;;;;25.60;76.02;100831.00;5055330;28;45589;-69
2023/08/12 07:27:47;;;;;;;;;0.00;0.00;;;;;25.31;74.80;100839.25;5055399;28;46200;-70
2023/08/12 07:30:12;;;;;;;;;0.00;0.00;;;;;25.05;74.84;100842.69;5054856;28;54785;-72
2023/08/12 07:32:37;;;;;;;;;0.33;0.33;;;;;24.75;75.20;100853.59;5055126;28;45457;-71
2023/08/12 07:35:05;;;;;;;;;0.00;0.00;;;;;24.59;75.33;100845.25;5055434;28;45310;-70
2023/08/12 07:37:30;;;;;;;;;0.00;0.00;;;;;24.49;75.98;100856.91;5054930;28;45273;-69
2023/08/12 07:39:55;;;;;;;;;0.00;0.00;;;;;24.43;75.66;100862.88;5053953;28;64291;-70
2023/08/12 07:42:20;;;;;;;;;0.00;0.00;;;;;24.27;76.71;100865.31;5054509;28;61891;-71
2023/08/12 07:44:46;;;;;;;;;0.33;0.33;;;;;24.03;77.75;100859.41;5055243;28;45351;-70
2023/08/12 07:47:11;;;;;;;;;3.75;2.75;;;;;23.99;78.65;100874.09;5054279;28;45995;-69
2023/08/12 07:49:37;;;;;;;;;2.00;2.00;;;;;23.69;79.52;100875.06;5036317;28;45377;-70
2023/08/12 07:52:02;;;;;;;;;0.50;0.50;;;;;23.45;80.57;100882.56;5054742;28;45297;-71
2023/08/12 07:54:27;;;;;;;;;1.00;1.00;;;;;23.39;80.59;100876.88;5054528;28;45365;-72
2023/08/12 07:56:53;;;;;;;;;1.00;1.00;;;;;23.39;81.67;100877.75;5054256;28;53239;-71
2023/08/12 07:59:19;;;;;;;;;1.00;1.00;;;;;23.44;81.42;100886.22;5036863;28;45225;-72
2023/08/12 08:01:45;;;;;;;;;4.50;2.00;;;;;23.36;82.22;100886.06;5053479;28;45324;-71
2023/08/12 08:04:10;;;;;;;;;2.00;2.00;;;;;23.43;80.99;100878.28;5054898;28;45599;-70
2023/08/12 08:06:35;;;;;;;;;3.75;2.00;;;;;23.40;82.34;100883.94;5054468;28;47229;-70
2023/08/12 08:09:03;;;;;;;;;1.50;1.50;;;;;23.53;81.52;100883.69;5055284;28;45340;-72
2023/08/12 08:11:30;;;;;;;;;1.50;1.50;;;;;23.57;80.87;100887.78;5054910;28;45437;-70
2023/08/12 08:13:58;;;;;;;;;2.25;2.25;;;;;23.66;80.82;100892.31;5054956;28;45425;-71
2023/08/12 08:16:23;;;;;;;;;3.00;1.00;;;;;23.74;80.23;100891.59;5053898;28;45277;-70
2023/08/12 08:18:48;;;;;;;;;1.75;1.75;;;;;23.80;79.93;100890.22;5054205;28;45284;-70
2023/08/12 08:21:14;;;;;;;;;2.25;2.00;;;;;23.83;79.07;100889.94;5054438;28;45268;-73
2023/08/12 08:23:40;;;;;;;;;1.00;0.75;;;;;23.91;78.83;100882.00;5054537;28;45585;-70
2023/08/12 08:26:06;;;;;;;;;1.75;1.75;;;;;24.01;77.95;100882.88;5054356;28;46133;-70
2023/08/12 08:28:32;;;;;;;;;2.00;1.25;;;;;24.16;77.87;100890.50;5054129;28;45220;-72
2023/08/12 08:30:58;;;;;;;;;7.00;5.75;;;;;24.35;77.29;100887.78;5054222;28;45250;-72
2023/08/12 08:33:24;;;;;;;;;2.00;2.00;;;;;24.56;76.33;100884.06;5054421;28;45792;-72
2023/08/12 08:35:50;;;;;;;;;2.00;2.00;;;;;24.72;75.62;100891.50;5058531;28;46233;-72
2023/08/12 08:38:15;;;;;;;;;4.00;3.00;;;;;24.97;75.08;100888.31;5060057;28;45335;-71
2023/08/12 08:40:41;;;;;;;;;4.25;2.25;;;;;25.19;74.08;100889.78;5058251;28;45338;-73
2023/08/12 08:43:07;;;;;;;;;4.33;1.00;;;;;25.21;72.70;100901.25;5057867;28;45378;-72
2023/08/12 08:45:33;;;;;;;;;1.50;1.50;;;;;25.14;72.73;100901.00;5056811;28;45317;-71
2023/08/12 08:48:00;;;;;;;;;2.00;2.00;;;;;25.16;72.00;100900.84;5057225;28;45354;-71
2023/08/12 08:50:27;;;;;;;;;6.75;6.00;;;;;25.29;71.98;100893.25;5039129;28;45253;-71
2023/08/12 08:52:55;;;;;;;;;5.25;4.00;;;;;25.61;71.47;100899.19;5057626;28;45274;-72
2023/08/12 08:55:21;;;;;;;;;6.75;3.75;;;;;25.77;70.74;100891.28;5057597;28;45504;-71
2023/08/12 08:57:47;;;;;;;;;3.75;3.75;;;;;26.15;69.93;100892.94;5057203;28;45375;-72
2023/08/12 09:00:14;;;;;;;;;2.33;2.33;;;;;26.61;68.43;100893.63;5057406;28;45413;-71
2023/08/12 09:02:41;;;;;;;;;3.00;3.00;;;;;26.93;66.73;100891.25;5057588;28;45431;-73
2023/08/12 09:05:07;;;;;;;;;4.00;4.00;;;;;27.16;65.97;100891.53;5056664;28;45277;-71
2023/08/12 09:07:34;;;;;;;;;5.00;3.00;;;;;27.37;64.75;100901.91;5056835;28;45258;-72
2023/08/12 09:10:00;;;;;;;;;4.25;1.25;;;;;27.61;64.07;100902.16;5056985;28;45385;-71
2023/08/12 09:12:26;;;;;;;;;2.25;2.25;;;;;27.78;63.11;100905.72;5057719;28;45529;-70
2023/08/12 09:14:51;;;;;;;;;1.67;1.67;;;;;27.86;63.12;100903.00;5056895;28;45980;-70
2023/08/12 09:17:16;;;;;;;;;1.75;1.75;;;;;27.97;62.72;100904.56;5055684;28;45564;-69
2023/08/12 09:19:42;;;;;;;;;0.67;0.67;;;;;28.07;61.88;100899.81;5058038;28;45376;-70
2023/08/12 09:22:09;;;;;;;;;4.00;2.75;;;;;28.20;61.31;100896.66;5059202;28;45429;-69
2023/08/12 09:24:34;;;;;;;;;1.67;1.33;;;;;28.26;60.48;100898.66;5057032;28;45396;-70
2023/08/12 09:27:00;;;;;;;;;2.00;2.00;;;;;28.36;59.83;100900.34;5038427;28;45336;-71
2023/08/12 09:29:34;;;;;;;;;1.50;1.50;;;;;28.55;59.10;100901.81;5057206;28;45162;-68
2023/08/12 09:32:11;;;;;;;;;3.33;2.00;;;;;28.60;58.54;100896.72;5055577;28;45561;-70
2023/08/12 09:34:37;;;;;;;;;2.00;2.00;;;;;28.75;59.30;100888.75;5056494;28;47183;-69
2023/08/12 09:37:03;;;;;;;;;2.00;2.00;;;;;28.91;57.92;100892.44;5056453;28;45284;-70
2023/08/12 09:39:29;;;;;;;;;1.00;1.00;;;;;28.96;56.95;100896.31;5056499;28;45314;-70
2023/08/12 09:41:55;;;;;;;;;2.00;2.00;;;;;29.15;56.22;100907.75;5057071;28;45379;-68
2023/08/12 09:44:22;;;;;;;;;0.00;0.00;;;;;29.25;54.98;100912.94;5056111;28;45342;-72
2023/08/12 09:46:47;;;;;;;;;0.00;0.00;;;;;29.11;54.65;100903.69;5054980;28;45331;-70
2023/08/12 09:49:13;;;;;;;;;3.33;1.33;;;;;29.17;54.55;100911.13;5056686;28;45568;-71
2023/08/12 09:51:40;;;;;;;;;3.50;2.00;;;;;28.96;54.80;100917.13;5056545;28;45760;-71
2023/08/12 09:54:06;;;;;;;;;2.33;1.67;;;;;28.90;54.04;100932.22;5059000;28;45511;-70
2023/08/12 09:56:36;;;;;;;;;5.50;5.50;;;;;28.90;54.55;100920.53;5058357;28;45400;-72
2023/08/12 09:59:05;;;;;;;;;1.00;1.00;;;;;28.78;54.45;100918.19;5057818;28;45397;-71
2023/08/12 10:01:31;;;;;;;;;2.00;0.00;;;;;28.79;54.64;100924.47;5056425;28;45550;-71
2023/08/12 10:03:56;;;;;;;;;1.75;1.75;;;;;28.78;54.50;100920.06;5056511;28;45252;-71
2023/08/12 10:06:22;;;;;;;;;1.75;1.75;;;;;28.91;54.87;100928.50;5056503;28;45374;-73
2023/08/12 10:08:49;;;;;;;;;5.25;3.00;;;;;29.00;54.36;100919.31;5056288;28;45229;-71
2023/08/12 10:11:15;;;;;;;;;2.00;2.00;;;;;29.08;54.47;100926.53;5056601;28;45427;-70
2023/08/12 10:13:40;;;;;;;;;3.33;1.67;;;;;28.85;54.03;100913.78;5056306;28;46106;-70
2023/08/12 10:16:06;;;;;;;;;0.50;0.50;;;;;28.71;54.36;100926.16;5055806;28;45287;-70
2023/08/12 10:18:32;;;;;;;;;0.75;0.75;;;;;28.75;54.75;100915.81;5056018;28;45359;-69
2023/08/12 10:21:00;;;;;;;;;3.00;2.75;;;;;28.70;55.21;100910.94;5056515;28;45421;-71
2023/08/12 10:23:25;;;;;;;;;5.00;3.50;;;;;28.90;54.98;100910.56;5055621;28;46954;-71
2023/08/12 10:25:54;;;;;;;;;3.50;3.00;;;;;29.00;54.74;100921.16;5055506;28;45351;-70
2023/08/12 10:28:19;;;;;;;;;3.00;3.00;;;;;29.11;53.97;100914.53;5055708;28;45296;-69
2023/08/12 10:30:45;;;;;;;;;4.00;4.00;;;;;29.21;53.72;100920.56;5055321;28;45445;-71
2023/08/12 10:33:14;;;;;;;;;3.00;3.00;;;;;29.39;53.82;100919.50;5055553;28;46675;-70
2023/08/12 10:35:45;;;;;;;;;1.00;1.00;;;;;29.55;52.74;100918.56;5055252;28;45312;-72
2023/08/12 10:38:13;;;;;;;;;2.50;1.25;;;;;29.52;52.12;100913.50;5055591;28;45363;-71
2023/08/12 10:40:38;;;;;;;;;1.00;1.00;;;;;29.53;52.12;100907.88;5055722;28;45482;-71
2023/08/12 10:43:04;;;;;;;;;2.00;0.00;;;;;29.68;51.86;100917.97;5037210;28;48190;-72
2023/08/12 10:45:46;;;;;;;;;1.00;1.00;;;;;29.45;51.97;100916.06;5037332;28;48760;-69
2023/08/12 10:48:24;;;;;;;;;2.00;2.00;;;;;29.40;52.25;100915.75;5055265;28;45385;-68
2023/08/12 10:50:54;;;;;;;;;5.00;3.25;;;;;29.49;52.36;100911.97;5055641;28;45388;-69
2023/08/12 10:53:34;;;;;;;;;2.00;2.00;;;;;29.54;51.96;100912.28;5053612;28;46425;-70
2023/08/12 10:56:04;;;;;;;;;3.75;1.75;;;;;29.51;52.30;100906.41;5055068;28;45266;-71
2023/08/12 10:58:34;;;;;;;;;1.50;1.50;;;;;29.40;51.93;100913.06;5055157;28;45323;-71
2023/08/12 11:01:00;;;;;;;;;1.00;1.00;;;;;29.41;51.87;100912.03;5055325;28;45605;-72
2023/08/12 11:03:26;;;;;;;;;1.00;1.00;;;;;29.37;51.61;100916.09;5036788;28;47932;-70
2023/08/12 11:05:55;;;;;;;;;1.67;1.67;;;;;29.49;52.18;100913.88;5055019;28;45323;-72
2023/08/12 11:08:26;;;;;;;;;2.00;2.00;;;;;29.49;52.02;100903.84;5055052;28;45413;-71
2023/08/12 11:10:54;;;;;;;;;1.33;1.33;;;;;29.67;51.30;100905.44;5053528;28;45304;-70
2023/08/12 11:13:20;;;;;;;;;2.00;2.00;;;;;29.85;51.17;100892.44;5053494;28;46277;-69
2023/08/12 11:15:47;;;;;;;;;3.75;3.75;;;;;30.09;50.61;100879.72;5054983;28;45241;-70
2023/08/12 11:18:16;;;;;;;;;3.50;3.50;;;;;30.69;49.85;100893.38;5055218;28;45440;-72